Time,TemperatureF,DewpointF,PressureIn,WindDirection,WindDirectionDegrees,WindSpeedMPH,WindSpeedGustMPH,Humidity,HourlyPrecipIn,Conditions,Clouds,dailyrainin,SoftwareType,DateUTC
2013-10-01 00:01:00,52.5,50.5,29.78,SE,138,0.0,0.0,93,0.00,,,0.00,WeatherCatV1.11B39,2013-10-01 04:01:00,
2013-10-01 00:06:00,52.5,50.2,29.78,SE,138,0.0,0.0,92,0.00,,,0.00,WeatherCatV1.11B39,2013-10-01 04:06:00,
2013-10-01 00:11:00,52.5,50.2,29.78,SE,138,0.0,0.0,92,0.00,,,0.00,WeatherCatV1.11B39,2013-10-01 04:11:00,
2013-10-01 00:16:00,52.5,49.9,29.78,SE,138,0.0,0.0,91,0.00,,,0.00,WeatherCatV1.11B39,2013-10-01 04:16:00,
2013-10-01 00:21:00,52.5,49.9,29.78,SE,138,0.0,0.0,91,0.00,,,0.00,WeatherCatV1.11B39,2013-10-01 04:21:00,
2013-10-01 00:26:00,52.5,49.9,29.78,SE,138,0.0,0.0,91,0.00,,,0.00,WeatherCatV1.11B39,2013-10-01 04:26:00,
2013-10-01 00:31:00,52.6,50.0,29.77,SE,138,0.0,0.0,91,0.00,,,0.00,WeatherCatV1.11B39,2013-10-01 04:31:00,
2013-10-01 00:36:00,52.9,50.3,29.78,SE,138,0.0,0.0,91,0.00,,,0.00,WeatherCatV1.11B39,2013-10-01 04:36:00,
2013-10-01 00:41:00,53.1,50.2,29.77,SE,138,0.0,0.0,90,0.00,,,0.00,WeatherCatV1.11B39,2013-10-01 04:41:00,
2013-10-01 00:46:00,53.2,50.3,29.77,SE,140,0.0,0.0,90,0.00,,,0.00,WeatherCatV1.11B39,2013-10-01 04:46:00,
2013-10-01 00:51:00,53.2,50.3,29.77,SE,140,0.0,0.0,90,0.00,,,0.00,WeatherCatV1.11B39,2013-10-01 04:51:00,
2013-10-01 00:56:00,53.4,50.2,29.77,SE,140,0.0,0.0,89,0.00,,,0.00,WeatherCatV1.11B39,2013-10-01 04:56:00,
2013-10-01 01:01:00,53.5,50.3,29.77,SE,140,0.0,0.0,89,0.00,,,0.00,WeatherCatV1.11B39,2013-10-01 05:01:00,
2013-10-01 01:06:00,53.6,50.1,29.77,SE,140,0.0,0.0,88,0.00,,,0.00,WeatherCatV1.11B39,2013-10-01 05:06:00,
2013-10-01 01:11:00,53.6,50.1,29.77,SE,140,0.0,0.0,88,0.00,,,0.00,WeatherCatV1.11B39,2013-10-01 05:11:00,
2013-10-01 01:16:00,53.6,50.1,29.76,SE,140,0.0,0.0,88,0.00,,,0.00,WeatherCatV1.11B39,2013-10-01 05:16:00,
2013-10-01 01:21:00,53.3,49.5,29.76,SE,140,0.0,0.0,87,0.00,,,0.00,WeatherCatV1.11B39,2013-10-01 05:21:00,
2013-10-01 01:26:00,53.0,49.5,29.76,SE,140,0.0,0.0,88,0.00,,,0.00,WeatherCatV1.11B39,2013-10-01 05:26:00,
2013-10-01 01:31:00,53.0,49.5,29.76,SE,140,0.0,0.0,88,0.00,,,0.00,WeatherCatV1.11B39,2013-10-01 05:31:00,
2013-10-01 01:36:00,53.0,49.2,29.76,SE,140,0.0,0.0,87,0.00,,,0.00,WeatherCatV1.11B39,2013-10-01 05:36:00,
2013-10-01 01:41:00,52.9,49.1,29.77,SE,141,0.0,0.0,87,0.00,,,0.00,WeatherCatV1.11B39,2013-10-01 05:41:00,
2013-10-01 01:46:00,52.3,48.2,29.77,SE,140,0.0,0.0,86,0.00,,,0.00,WeatherCatV1.11B39,2013-10-01 05:46:00,
2013-10-01 01:51:00,51.8,48.1,29.77,SE,137,0.0,0.0,87,0.00,,,0.00,WeatherCatV1.11B39,2013-10-01 05:51:00,
2013-10-01 01:56:00,51.6,48.2,29.77,SE,137,0.0,0.0,88,0.00,,,0.00,WeatherCatV1.11B39,2013-10-01 05:56:00,
2013-10-01 02:01:00,51.3,47.9,29.76,SE,137,0.0,0.0,88,0.00,,,0.00,WeatherCatV1.11B39,2013-10-01 06:01:00,
2013-10-01 02:06:00,51.2,47.8,29.77,SE,137,0.0,0.0,88,0.00,,,0.00,WeatherCatV1.11B39,2013-10-01 06:06:00,
2013-10-01 02:11:00,51.0,47.6,29.76,SE,137,0.0,0.0,88,0.00,,,0.00,WeatherCatV1.11B39,2013-10-01 06:11:00,
2013-10-01 02:16:00,50.8,47.7,29.76,SE,137,0.0,0.0,89,0.00,,,0.00,WeatherCatV1.11B39,2013-10-01 06:16:00,
2013-10-01 02:21:00,51.0,47.9,29.76,SE,137,0.0,0.0,89,0.00,,,0.00,WeatherCatV1.11B39,2013-10-01 06:21:00,
2013-10-01 02:26:00,51.0,48.2,29.76,SE,137,0.0,0.0,90,0.00,,,0.00,WeatherCatV1.11B39,2013-10-01 06:26:00,
2013-10-01 02:31:00,50.8,48.0,29.76,SE,137,0.0,0.0,90,0.00,,,0.00,WeatherCatV1.11B39,2013-10-01 06:31:00,
2013-10-01 02:36:00,50.7,47.9,29.76,SE,137,0.0,0.0,90,0.00,,,0.00,WeatherCatV1.11B39,2013-10-01 06:36:00,
2013-10-01 02:41:00,50.6,47.8,29.76,SE,137,0.0,0.0,90,0.00,,,0.00,WeatherCatV1.11B39,2013-10-01 06:41:00,
2013-10-01 02:46:00,50.6,48.1,29.76,SE,137,0.0,0.0,91,0.00,,,0.00,WeatherCatV1.11B39,2013-10-01 06:46:00,
2013-10-01 02:51:00,50.6,48.1,29.76,SE,137,0.0,0.0,91,0.00,,,0.00,WeatherCatV1.11B39,2013-10-01 06:51:00,
2013-10-01 02:56:00,50.6,48.1,29.76,SE,137,0.0,0.0,91,0.00,,,0.00,WeatherCatV1.11B39,2013-10-01 06:56:00,
2013-10-01 03:01:00,50.4,47.9,29.76,SE,137,0.0,0.0,91,0.00,,,0.00,WeatherCatV1.11B39,2013-10-01 07:01:00,
2013-10-01 03:06:00,50.4,47.9,29.76,SE,137,0.0,0.0,91,0.00,,,0.00,WeatherCatV1.11B39,2013-10-01 07:06:00,
2013-10-01 03:11:00,49.5,46.7,29.76,SE,137,0.0,0.0,90,0.00,,,0.00,WeatherCatV1.11B39,2013-10-01 07:11:00,
2013-10-01 03:16:00,48.7,45.9,29.76,SE,136,0.0,0.0,90,0.00,,,0.00,WeatherCatV1.11B39,2013-10-01 07:16:00,
2013-10-01 03:21:00,48.7,46.5,29.75,SE,136,0.0,0.0,92,0.00,,,0.00,WeatherCatV1.11B39,2013-10-01 07:21:00,
2013-10-01 03:26:00,48.7,46.5,29.76,SE,137,0.0,0.0,92,0.00,,,0.00,WeatherCatV1.11B39,2013-10-01 07:26:00,
2013-10-01 03:31:00,48.5,46.3,29.76,SE,136,0.0,0.0,92,0.00,,,0.00,WeatherCatV1.11B39,2013-10-01 07:31:00,
2013-10-01 03:36:00,48.5,46.3,29.76,SE,137,0.0,0.0,92,0.00,,,0.00,WeatherCatV1.11B39,2013-10-01 07:36:00,
2013-10-01 03:41:00,48.2,46.0,29.76,SE,136,0.0,0.0,92,0.00,,,0.00,WeatherCatV1.11B39,2013-10-01 07:41:00,
2013-10-01 03:46:00,48.1,45.9,29.76,SE,136,0.0,0.0,92,0.00,,,0.00,WeatherCatV1.11B39,2013-10-01 07:46:00,
2013-10-01 03:51:00,47.9,46.3,29.76,SE,136,0.0,0.0,94,0.00,,,0.00,WeatherCatV1.11B39,2013-10-01 07:51:00,
2013-10-01 03:56:00,47.6,45.7,29.76,SE,136,0.0,0.0,93,0.00,,,0.00,WeatherCatV1.11B39,2013-10-01 07:56:00,
2013-10-01 04:01:00,47.5,45.9,29.76,SE,136,0.0,0.0,94,0.00,,,0.00,WeatherCatV1.11B39,2013-10-01 08:01:00,
2013-10-01 04:06:00,47.6,45.7,29.75,SE,136,0.0,0.0,93,0.00,,,0.00,WeatherCatV1.11B39,2013-10-01 08:06:00,
2013-10-01 04:11:00,47.4,45.5,29.75,SE,136,0.0,0.0,93,0.00,,,0.00,WeatherCatV1.11B39,2013-10-01 08:11:00,
2013-10-01 04:16:00,47.3,45.7,29.75,SE,136,0.0,0.0,94,0.00,,,0.00,WeatherCatV1.11B39,2013-10-01 08:16:00,
2013-10-01 04:21:00,47.2,45.6,29.76,SE,136,0.0,0.0,94,0.00,,,0.00,WeatherCatV1.11B39,2013-10-01 08:21:00,
2013-10-01 04:26:00,47.2,45.6,29.76,SE,136,0.0,0.0,94,0.00,,,0.00,WeatherCatV1.11B39,2013-10-01 08:26:00,
2013-10-01 04:31:00,47.2,45.6,29.76,SE,137,0.0,0.0,94,0.00,,,0.00,WeatherCatV1.11B39,2013-10-01 08:31:00,
2013-10-01 04:36:00,47.4,45.8,29.75,SE,136,0.0,0.0,94,0.00,,,0.00,WeatherCatV1.11B39,2013-10-01 08:36:00,
2013-10-01 04:41:00,47.9,46.5,29.76,SE,136,0.0,0.0,95,0.00,,,0.00,WeatherCatV1.11B39,2013-10-01 08:41:00,
2013-10-01 04:46:00,48.5,47.1,29.75,SE,136,0.0,0.0,95,0.00,,,0.00,WeatherCatV1.11B39,2013-10-01 08:46:00,
2013-10-01 04:51:00,48.8,47.4,29.75,SE,136,0.0,0.0,95,0.00,,,0.00,WeatherCatV1.11B39,2013-10-01 08:51:00,
2013-10-01 04:56:00,49.0,47.6,29.75,SE,136,0.0,0.0,95,0.00,,,0.00,WeatherCatV1.11B39,2013-10-01 08:56:00,
2013-10-01 05:01:00,49.1,47.7,29.75,SE,136,0.0,0.0,95,0.00,,,0.00,WeatherCatV1.11B39,2013-10-01 09:01:00,
2013-10-01 05:06:00,49.2,47.8,29.75,SE,136,0.0,0.0,95,0.00,,,0.00,WeatherCatV1.11B39,2013-10-01 09:06:00,
2013-10-01 05:11:00,49.5,48.1,29.75,SE,136,0.0,0.0,95,0.00,,,0.00,WeatherCatV1.11B39,2013-10-01 09:11:00,
2013-10-01 05:17:00,49.8,48.7,29.75,SE,136,0.0,0.0,96,0.00,,,0.00,WeatherCatV1.11B39,2013-10-01 09:17:00,
2013-10-01 05:22:00,50.0,48.6,29.75,SE,136,0.0,0.0,95,0.00,,,0.00,WeatherCatV1.11B39,2013-10-01 09:22:00,
2013-10-01 05:27:00,50.1,48.7,29.75,SE,137,0.0,0.0,95,0.00,,,0.00,WeatherCatV1.11B39,2013-10-01 09:27:00,
2013-10-01 05:32:00,50.1,48.7,29.75,SE,137,0.0,0.0,95,0.00,,,0.00,WeatherCatV1.11B39,2013-10-01 09:32:00,
2013-10-01 05:37:00,50.0,48.6,29.75,SE,137,0.0,0.0,95,0.00,,,0.00,WeatherCatV1.11B39,2013-10-01 09:37:00,
2013-10-01 05:42:00,50.1,48.7,29.75,SE,137,0.0,0.0,95,0.00,,,0.00,WeatherCatV1.11B39,2013-10-01 09:42:00,
2013-10-01 05:47:00,50.3,49.2,29.76,SW,220,0.0,0.0,96,0.00,,,0.00,WeatherCatV1.11B39,2013-10-01 09:47:00,
2013-10-01 05:52:00,50.4,49.0,29.76,SW,220,0.0,0.0,95,0.00,,,0.00,WeatherCatV1.11B39,2013-10-01 09:52:00,
2013-10-01 05:57:00,50.4,49.0,29.76,SW,220,0.0,0.0,95,0.00,,,0.00,WeatherCatV1.11B39,2013-10-01 09:57:00,
2013-10-01 06:02:00,50.4,49.0,29.76,SW,220,0.0,0.0,95,0.00,,,0.00,WeatherCatV1.11B39,2013-10-01 10:02:00,
2013-10-01 06:07:00,50.4,49.0,29.76,SW,220,0.0,0.0,95,0.00,,,0.00,WeatherCatV1.11B39,2013-10-01 10:07:00,
2013-10-01 06:12:00,50.5,49.1,29.76,SW,220,0.0,0.0,95,0.00,,,0.00,WeatherCatV1.11B39,2013-10-01 10:12:00,
2013-10-01 06:17:00,50.7,49.3,29.76,SW,220,0.0,0.0,95,0.00,,,0.00,WeatherCatV1.11B39,2013-10-01 10:17:00,
2013-10-01 06:22:00,50.6,49.2,29.76,SW,221,0.0,0.0,95,0.00,,,0.00,WeatherCatV1.11B39,2013-10-01 10:22:00,
2013-10-01 06:27:00,50.6,48.9,29.76,SW,221,0.0,0.0,94,0.00,,,0.00,WeatherCatV1.11B39,2013-10-01 10:27:00,
2013-10-01 06:32:00,50.4,49.0,29.76,SW,221,0.0,0.0,95,0.00,,,0.00,WeatherCatV1.11B39,2013-10-01 10:32:00,
2013-10-01 06:37:00,50.4,48.7,29.76,SW,221,0.0,0.0,94,0.00,,,0.00,WeatherCatV1.11B39,2013-10-01 10:37:00,
2013-10-01 06:42:00,50.4,48.7,29.76,SW,221,0.0,0.0,94,0.00,,,0.00,WeatherCatV1.11B39,2013-10-01 10:42:00,
2013-10-01 06:47:00,50.4,48.7,29.76,SW,221,0.0,0.0,94,0.00,,,0.00,WeatherCatV1.11B39,2013-10-01 10:47:00,
2013-10-01 06:52:00,50.3,48.6,29.76,SW,221,0.0,0.0,94,0.00,,,0.00,WeatherCatV1.11B39,2013-10-01 10:52:00,
2013-10-01 06:57:00,50.3,48.6,29.76,SW,221,0.0,0.0,94,0.00,,,0.00,WeatherCatV1.11B39,2013-10-01 10:57:00,
2013-10-01 07:02:00,50.3,48.6,29.76,SW,223,0.0,0.0,94,0.00,,,0.00,WeatherCatV1.11B39,2013-10-01 11:02:00,
2013-10-01 07:07:00,50.1,48.4,29.76,SW,223,0.0,0.0,94,0.00,,,0.00,WeatherCatV1.11B39,2013-10-01 11:07:00,
2013-10-01 07:12:00,50.3,48.6,29.76,SW,223,0.0,0.0,94,0.00,,,0.00,WeatherCatV1.11B39,2013-10-01 11:12:00,
2013-10-01 07:17:00,50.3,48.6,29.77,SW,223,0.0,0.0,94,0.00,,,0.00,WeatherCatV1.11B39,2013-10-01 11:17:00,
2013-10-01 07:22:00,50.3,48.9,29.77,SW,223,0.0,0.0,95,0.00,,,0.00,WeatherCatV1.11B39,2013-10-01 11:22:00,
2013-10-01 07:27:00,50.6,48.9,29.76,SW,223,0.0,0.0,94,0.00,,,0.00,WeatherCatV1.11B39,2013-10-01 11:27:00,
2013-10-01 07:32:00,50.6,49.2,29.77,SW,223,0.0,0.0,95,0.00,,,0.00,WeatherCatV1.11B39,2013-10-01 11:32:00,
2013-10-01 07:37:00,50.7,49.3,29.76,SW,223,0.0,0.0,95,0.00,,,0.00,WeatherCatV1.11B39,2013-10-01 11:37:00,
2013-10-01 07:42:00,50.8,49.1,29.76,SW,223,0.0,0.0,94,0.00,,,0.00,WeatherCatV1.11B39,2013-10-01 11:42:00,
2013-10-01 07:47:00,51.0,49.6,29.76,SW,223,0.0,0.0,95,0.00,,,0.00,WeatherCatV1.11B39,2013-10-01 11:47:00,
2013-10-01 07:53:00,51.2,49.5,29.76,SW,219,0.0,0.0,94,0.00,,,0.00,WeatherCatV1.11B39,2013-10-01 11:53:00,
2013-10-01 07:58:00,51.3,49.6,29.77,SW,218,0.0,0.0,94,0.00,,,0.00,WeatherCatV1.11B39,2013-10-01 11:58:00,
2013-10-01 08:03:00,51.6,50.2,29.76,SW,218,0.0,0.0,95,0.00,,,0.00,WeatherCatV1.11B39,2013-10-01 12:03:00,
2013-10-01 08:08:00,51.9,50.2,29.76,SW,218,0.0,0.0,94,0.00,,,0.00,WeatherCatV1.11B39,2013-10-01 12:08:00,
2013-10-01 08:13:00,52.0,50.3,29.77,SW,221,0.0,0.0,94,0.00,,,0.00,WeatherCatV1.11B39,2013-10-01 12:13:00,
2013-10-01 08:18:00,52.2,50.5,29.77,SW,227,0.0,0.0,94,0.00,,,0.00,WeatherCatV1.11B39,2013-10-01 12:18:00,
2013-10-01 08:23:00,52.3,50.6,29.77,SW,221,0.0,0.0,94,0.00,,,0.00,WeatherCatV1.11B39,2013-10-01 12:23:00,
2013-10-01 08:28:00,52.6,50.9,29.77,SW,221,0.0,0.0,94,0.00,,,0.00,WeatherCatV1.11B39,2013-10-01 12:28:00,
2013-10-01 08:33:00,52.9,51.2,29.77,SW,221,0.0,0.0,94,0.00,,,0.00,WeatherCatV1.11B39,2013-10-01 12:33:00,
2013-10-01 08:38:00,53.4,51.7,29.77,SW,221,0.0,0.0,94,0.00,,,0.00,WeatherCatV1.11B39,2013-10-01 12:38:00,
2013-10-01 08:43:00,53.8,52.1,29.77,SW,221,0.0,0.0,94,0.00,,,0.00,WeatherCatV1.11B39,2013-10-01 12:43:00,
2013-10-01 08:48:00,54.2,52.5,29.77,SW,221,0.0,0.0,94,0.00,,,0.00,WeatherCatV1.11B39,2013-10-01 12:48:00,
2013-10-01 08:53:00,54.9,53.2,29.77,SW,221,0.0,0.0,94,0.00,,,0.00,WeatherCatV1.11B39,2013-10-01 12:53:00,
2013-10-01 08:58:00,55.5,53.8,29.77,SW,221,0.0,0.0,94,0.00,,,0.00,WeatherCatV1.11B39,2013-10-01 12:58:00,
2013-10-01 09:03:00,56.1,54.4,29.77,SW,221,0.0,0.0,94,0.00,,,0.00,WeatherCatV1.11B39,2013-10-01 13:03:00,
2013-10-01 09:08:00,56.7,54.7,29.77,SW,221,0.0,0.0,93,0.00,,,0.00,WeatherCatV1.11B39,2013-10-01 13:08:00,
2013-10-01 09:13:00,57.5,55.2,29.77,SW,221,0.0,0.0,92,0.00,,,0.00,WeatherCatV1.11B39,2013-10-01 13:13:00,
2013-10-01 09:18:00,58.2,55.9,29.77,SW,221,0.0,0.0,92,0.00,,,0.00,WeatherCatV1.11B39,2013-10-01 13:18:00,
2013-10-01 09:23:00,59.2,56.6,29.77,SW,221,0.0,0.0,91,0.00,,,0.00,WeatherCatV1.11B39,2013-10-01 13:23:00,
2013-10-01 09:28:00,60.6,57.6,29.77,West,260,0.0,0.0,90,0.00,,,0.00,WeatherCatV1.11B39,2013-10-01 13:28:00,
2013-10-01 09:33:00,61.3,57.1,29.77,West,260,0.0,0.0,86,0.00,,,0.00,WeatherCatV1.11B39,2013-10-01 13:33:00,
2013-10-01 09:38:00,62.1,57.5,29.76,West,260,0.0,0.0,85,0.00,,,0.00,WeatherCatV1.11B39,2013-10-01 13:38:00,
2013-10-01 09:43:00,63.0,57.1,29.77,West,260,0.0,0.0,81,0.00,,,0.00,WeatherCatV1.11B39,2013-10-01 13:43:00,
2013-10-01 09:48:00,63.9,57.3,29.76,West,265,0.0,0.0,79,0.00,,,0.00,WeatherCatV1.11B39,2013-10-01 13:48:00,
2013-10-01 09:53:00,64.8,57.0,29.77,West,269,0.0,0.0,76,0.00,,,0.00,WeatherCatV1.11B39,2013-10-01 13:53:00,
2013-10-01 09:58:00,65.7,56.8,29.76,WNW,282,0.0,0.0,73,0.00,,,0.00,WeatherCatV1.11B39,2013-10-01 13:58:00,
2013-10-01 10:03:00,66.4,56.3,29.76,NW,324,0.0,0.0,70,0.00,,,0.00,WeatherCatV1.11B39,2013-10-01 14:03:00,
2013-10-01 10:08:00,67.3,56.0,29.76,NNW,328,0.0,0.0,67,0.00,,,0.00,WeatherCatV1.11B39,2013-10-01 14:08:00,
2013-10-01 10:13:00,67.9,55.7,29.76,SE,131,0.0,0.0,65,0.00,,,0.00,WeatherCatV1.11B39,2013-10-01 14:13:00,
2013-10-01 10:18:00,68.4,54.9,29.76,SE,127,0.0,0.0,62,0.00,,,0.00,WeatherCatV1.11B39,2013-10-01 14:18:00,
2013-10-01 10:23:00,69.1,54.2,29.76,SE,139,0.0,0.0,59,0.00,,,0.00,WeatherCatV1.11B39,2013-10-01 14:23:00,
2013-10-01 10:28:00,69.5,55.0,29.76,SE,140,0.0,0.0,60,0.00,,,0.00,WeatherCatV1.11B39,2013-10-01 14:28:00,
2013-10-01 10:33:00,69.9,54.0,29.76,SE,140,0.0,0.0,57,0.00,,,0.00,WeatherCatV1.11B39,2013-10-01 14:33:00,
2013-10-01 10:38:00,70.2,53.8,29.76,South,169,0.0,0.0,56,0.00,,,0.00,WeatherCatV1.11B39,2013-10-01 14:38:00,
2013-10-01 10:43:00,70.4,53.9,29.76,East,83,0.0,0.0,56,0.00,,,0.00,WeatherCatV1.11B39,2013-10-01 14:43:00,
2013-10-01 10:48:00,70.7,53.7,29.76,ESE,102,0.0,0.0,55,0.00,,,0.00,WeatherCatV1.11B39,2013-10-01 14:48:00,
2013-10-01 10:53:00,71.3,54.3,29.76,ESE,113,0.0,0.0,55,0.00,,,0.00,WeatherCatV1.11B39,2013-10-01 14:53:00,
2013-10-01 10:58:00,71.4,52.8,29.75,SSE,147,0.0,0.0,52,0.00,,,0.00,WeatherCatV1.11B39,2013-10-01 14:58:00,
2013-10-01 11:04:00,71.7,52.6,29.75,East,80,0.0,0.0,51,0.00,,,0.00,WeatherCatV1.11B39,2013-10-01 15:04:00,
2013-10-01 11:09:00,72.1,54.0,29.75,NNW,341,0.0,0.0,53,0.00,,,0.00,WeatherCatV1.11B39,2013-10-01 15:09:00,
2013-10-01 11:14:00,72.3,52.1,29.75,SSW,202,0.0,0.0,49,0.00,,,0.00,WeatherCatV1.11B39,2013-10-01 15:14:00,
2013-10-01 11:19:00,72.3,51.5,29.74,ENE,68,0.0,0.0,48,0.00,,,0.00,WeatherCatV1.11B39,2013-10-01 15:19:00,
2013-10-01 11:24:00,72.1,51.3,29.74,ENE,64,0.0,0.0,48,0.00,,,0.00,WeatherCatV1.11B39,2013-10-01 15:24:00,
2013-10-01 11:29:00,72.3,52.1,29.75,East,94,0.0,0.0,49,0.00,,,0.00,WeatherCatV1.11B39,2013-10-01 15:29:00,
2013-10-01 11:34:00,72.6,52.9,29.74,NNW,338,0.0,0.0,50,0.00,,,0.00,WeatherCatV1.11B39,2013-10-01 15:34:00,
2013-10-01 11:39:00,73.1,52.8,29.74,NNW,339,0.0,0.0,49,0.00,,,0.00,WeatherCatV1.11B39,2013-10-01 15:39:00,
2013-10-01 11:44:00,73.2,51.2,29.73,ENE,72,0.0,0.0,46,0.00,,,0.00,WeatherCatV1.11B39,2013-10-01 15:44:00,
2013-10-01 11:49:00,73.6,54.3,29.73,SE,135,0.0,0.0,51,0.00,,,0.00,WeatherCatV1.11B39,2013-10-01 15:49:00,
2013-10-01 11:54:00,74.1,54.3,29.73,SE,135,0.0,0.0,50,0.00,,,0.00,WeatherCatV1.11B39,2013-10-01 15:54:00,
2013-10-01 11:59:00,74.4,52.3,29.73,East,94,0.0,0.0,46,0.00,,,0.00,WeatherCatV1.11B39,2013-10-01 15:59:00,
2013-10-01 12:04:00,74.1,51.4,29.73,East,94,0.0,0.0,45,0.00,,,0.00,WeatherCatV1.11B39,2013-10-01 16:04:00,
2013-10-01 12:09:00,74.3,52.2,29.72,West,273,0.0,0.0,46,0.00,,,0.00,WeatherCatV1.11B39,2013-10-01 16:09:00,
2013-10-01 12:14:00,74.5,51.7,29.72,West,273,0.0,0.0,45,0.00,,,0.00,WeatherCatV1.11B39,2013-10-01 16:14:00,
2013-10-01 12:19:00,75.0,52.8,29.72,SW,225,0.0,0.0,46,0.00,,,0.00,WeatherCatV1.11B39,2013-10-01 16:19:00,
2013-10-01 12:24:00,75.4,52.6,29.72,SW,220,0.0,0.0,45,0.00,,,0.00,WeatherCatV1.11B39,2013-10-01 16:24:00,
2013-10-01 12:29:00,75.7,51.6,29.72,West,281,0.0,0.0,43,0.00,,,0.00,WeatherCatV1.11B39,2013-10-01 16:29:00,
2013-10-01 12:31:00,75.5,50.8,29.71,West,279,0.0,0.0,42,0.00,,,0.00,WeatherCatV1.11B39,2013-10-01 16:31:00,
2013-10-01 12:36:00,75.5,52.0,29.71,South,186,0.0,0.0,44,0.00,,,0.00,WeatherCatV1.11B39,2013-10-01 16:36:00,
2013-10-01 12:41:00,75.7,51.6,29.72,SE,144,0.0,0.0,43,0.00,,,0.00,WeatherCatV1.11B39,2013-10-01 16:41:00,
2013-10-01 12:46:00,75.9,51.8,29.72,SE,142,0.0,0.0,43,0.00,,,0.00,WeatherCatV1.11B39,2013-10-01 16:46:00,
2013-10-01 12:51:00,75.9,52.4,29.71,SSW,205,0.0,1.0,44,0.00,,,0.00,WeatherCatV1.11B39,2013-10-01 16:51:00,
2013-10-01 12:56:00,76.1,51.3,29.71,SW,228,0.0,0.0,42,0.00,,,0.00,WeatherCatV1.11B39,2013-10-01 16:56:00,
2013-10-01 13:01:00,76.4,51.6,29.71,South,174,0.0,0.0,42,0.00,,,0.00,WeatherCatV1.11B39,2013-10-01 17:01:00,
2013-10-01 13:06:00,76.6,51.1,29.71,WSW,254,0.0,0.0,41,0.00,,,0.00,WeatherCatV1.11B39,2013-10-01 17:06:00,
2013-10-01 13:11:00,76.9,52.0,29.70,WNW,291,0.0,0.0,42,0.00,,,0.00,WeatherCatV1.11B39,2013-10-01 17:11:00,
2013-10-01 13:16:00,77.0,52.1,29.71,North,3,0.0,0.0,42,0.00,,,0.00,WeatherCatV1.11B39,2013-10-01 17:16:00,
2013-10-01 13:21:00,77.0,52.1,29.71,North,359,0.0,0.0,42,0.00,,,0.00,WeatherCatV1.11B39,2013-10-01 17:21:00,
2013-10-01 13:26:00,77.3,52.4,29.70,NNE,31,0.0,0.0,42,0.00,,,0.00,WeatherCatV1.11B39,2013-10-01 17:26:00,
2013-10-01 13:31:00,77.5,51.3,29.70,ESE,105,0.0,0.0,40,0.00,,,0.00,WeatherCatV1.11B39,2013-10-01 17:31:00,
2013-10-01 13:36:00,77.5,50.6,29.70,ESE,103,0.0,0.0,39,0.00,,,0.00,WeatherCatV1.11B39,2013-10-01 17:36:00,
2013-10-01 13:41:00,77.1,50.9,29.70,North,354,0.0,0.0,40,0.00,,,0.00,WeatherCatV1.11B39,2013-10-01 17:41:00,
2013-10-01 13:46:00,77.5,51.3,29.69,SSW,201,0.0,0.0,40,0.00,,,0.00,WeatherCatV1.11B39,2013-10-01 17:46:00,
2013-10-01 13:51:00,77.8,50.8,29.69,SSW,198,0.0,0.0,39,0.00,,,0.00,WeatherCatV1.11B39,2013-10-01 17:51:00,
2013-10-01 13:57:00,78.2,51.9,29.69,South,175,0.0,0.0,40,0.00,,,0.00,WeatherCatV1.11B39,2013-10-01 17:57:00,
2013-10-01 14:02:00,78.4,53.4,29.68,SE,124,0.0,0.0,42,0.00,,,0.00,WeatherCatV1.11B39,2013-10-01 18:02:00,
2013-10-01 14:07:00,77.8,52.2,29.68,South,173,0.0,1.0,41,0.00,,,0.00,WeatherCatV1.11B39,2013-10-01 18:07:00,
2013-10-01 14:12:00,78.0,51.0,29.69,SSE,165,0.0,0.0,39,0.00,,,0.00,WeatherCatV1.11B39,2013-10-01 18:12:00,
2013-10-01 14:17:00,77.8,50.1,29.68,East,100,0.0,0.0,38,0.00,,,0.00,WeatherCatV1.11B39,2013-10-01 18:17:00,
2013-10-01 14:22:00,77.8,50.8,29.68,NE,41,0.0,0.0,39,0.00,,,0.00,WeatherCatV1.11B39,2013-10-01 18:22:00,
2013-10-01 14:27:00,78.0,51.7,29.68,NW,310,0.0,0.0,40,0.00,,,0.00,WeatherCatV1.11B39,2013-10-01 18:27:00,
2013-10-01 14:32:00,78.4,52.1,29.68,NW,311,0.0,0.0,40,0.00,,,0.00,WeatherCatV1.11B39,2013-10-01 18:32:00,
2013-10-01 14:37:00,78.9,52.5,29.68,WSW,239,0.0,0.0,40,0.00,,,0.00,WeatherCatV1.11B39,2013-10-01 18:37:00,
2013-10-01 14:42:00,79.1,52.0,29.68,NW,315,0.0,0.0,39,0.00,,,0.00,WeatherCatV1.11B39,2013-10-01 18:42:00,
2013-10-01 14:47:00,79.1,50.6,29.68,WSW,254,0.0,7.0,37,0.00,,,0.00,WeatherCatV1.11B39,2013-10-01 18:47:00,
2013-10-01 14:52:00,78.7,51.6,29.68,WSW,238,0.0,0.0,39,0.00,,,0.00,WeatherCatV1.11B39,2013-10-01 18:52:00,
2013-10-01 14:57:00,78.5,50.8,29.68,SSW,213,0.0,0.0,38,0.00,,,0.00,WeatherCatV1.11B39,2013-10-01 18:57:00,
2013-10-01 15:02:00,78.7,51.6,29.67,SSW,211,0.0,0.0,39,0.00,,,0.00,WeatherCatV1.11B39,2013-10-01 19:02:00,
2013-10-01 15:07:00,78.5,50.8,29.67,SSW,199,0.0,0.0,38,0.00,,,0.00,WeatherCatV1.11B39,2013-10-01 19:07:00,
2013-10-01 15:12:00,78.2,51.2,29.68,SSW,201,0.0,0.0,39,0.00,,,0.00,WeatherCatV1.11B39,2013-10-01 19:12:00,
2013-10-01 15:17:00,78.2,52.5,29.67,SSW,201,0.0,0.0,41,0.00,,,0.00,WeatherCatV1.11B39,2013-10-01 19:17:00,
2013-10-01 15:22:00,78.7,52.3,29.68,West,269,0.0,0.0,40,0.00,,,0.00,WeatherCatV1.11B39,2013-10-01 19:22:00,
2013-10-01 15:27:00,79.1,52.7,29.67,West,278,0.0,0.0,40,0.00,,,0.00,WeatherCatV1.11B39,2013-10-01 19:27:00,
2013-10-01 15:32:00,78.9,52.5,29.67,West,263,0.0,0.0,40,0.00,,,0.00,WeatherCatV1.11B39,2013-10-01 19:32:00,
2013-10-01 15:37:00,79.5,54.4,29.67,West,264,0.0,0.0,42,0.00,,,0.00,WeatherCatV1.11B39,2013-10-01 19:37:00,
2013-10-01 15:42:00,79.9,52.7,29.67,WNW,298,0.0,2.0,39,0.00,,,0.00,WeatherCatV1.11B39,2013-10-01 19:42:00,
2013-10-01 15:47:00,79.1,54.0,29.67,WNW,297,0.0,0.0,42,0.00,,,0.00,WeatherCatV1.11B39,2013-10-01 19:47:00,
2013-10-01 15:52:00,78.7,53.7,29.66,WNW,297,0.0,0.0,42,0.00,,,0.00,WeatherCatV1.11B39,2013-10-01 19:52:00,
2013-10-01 15:57:00,78.8,53.1,29.67,NW,308,0.0,1.0,41,0.00,,,0.00,WeatherCatV1.11B39,2013-10-01 19:57:00,
2013-10-01 16:02:00,78.7,53.0,29.67,NW,308,0.0,0.0,41,0.00,,,0.00,WeatherCatV1.11B39,2013-10-01 20:02:00,
2013-10-01 16:07:00,78.9,52.5,29.67,WNW,282,0.0,0.0,40,0.00,,,0.00,WeatherCatV1.11B39,2013-10-01 20:07:00,
2013-10-01 16:12:00,78.7,52.3,29.67,NW,315,0.0,0.0,40,0.00,,,0.00,WeatherCatV1.11B39,2013-10-01 20:12:00,
2013-10-01 16:17:00,78.5,53.5,29.67,WNW,301,0.0,1.0,42,0.00,,,0.00,WeatherCatV1.11B39,2013-10-01 20:17:00,
2013-10-01 16:22:00,78.5,53.5,29.67,WNW,294,0.0,0.0,42,0.00,,,0.00,WeatherCatV1.11B39,2013-10-01 20:22:00,
2013-10-01 16:27:00,78.4,53.4,29.67,NW,313,0.0,1.0,42,0.00,,,0.00,WeatherCatV1.11B39,2013-10-01 20:27:00,
2013-10-01 16:32:00,78.4,54.0,29.67,WNW,302,0.0,3.0,43,0.00,,,0.00,WeatherCatV1.11B39,2013-10-01 20:32:00,
2013-10-01 16:37:00,78.4,53.4,29.67,ENE,67,0.0,0.0,42,0.00,,,0.00,WeatherCatV1.11B39,2013-10-01 20:37:00,
2013-10-01 16:42:00,78.2,54.5,29.67,ENE,74,0.0,0.0,44,0.00,,,0.00,WeatherCatV1.11B39,2013-10-01 20:42:00,
2013-10-01 16:47:00,78.0,53.7,29.67,North,351,0.0,0.0,43,0.00,,,0.00,WeatherCatV1.11B39,2013-10-01 20:47:00,
2013-10-01 16:52:00,77.7,53.4,29.67,NNW,341,0.0,0.0,43,0.00,,,0.00,WeatherCatV1.11B39,2013-10-01 20:52:00,
2013-10-01 16:57:00,77.3,53.7,29.67,NNW,341,0.0,0.0,44,0.00,,,0.00,WeatherCatV1.11B39,2013-10-01 20:57:00,
2013-10-01 17:02:00,77.0,54.0,29.68,NNW,336,0.0,0.0,45,0.00,,,0.00,WeatherCatV1.11B39,2013-10-01 21:02:00,
2013-10-01 17:07:00,76.6,53.6,29.68,East,82,0.0,0.0,45,0.00,,,0.00,WeatherCatV1.11B39,2013-10-01 21:07:00,
2013-10-01 17:12:00,76.4,54.1,29.68,South,169,0.0,0.0,46,0.00,,,0.00,WeatherCatV1.11B39,2013-10-01 21:12:00,
2013-10-01 17:17:00,76.1,53.8,29.68,SSE,168,0.0,0.0,46,0.00,,,0.00,WeatherCatV1.11B39,2013-10-01 21:17:00,
2013-10-01 17:22:00,75.9,53.6,29.67,SSE,168,0.0,0.0,46,0.00,,,0.00,WeatherCatV1.11B39,2013-10-01 21:22:00,
2013-10-01 17:27:00,75.5,53.3,29.67,SSE,168,0.0,0.0,46,0.00,,,0.00,WeatherCatV1.11B39,2013-10-01 21:27:00,
2013-10-01 17:32:00,75.2,54.1,29.68,SSE,168,0.0,0.0,48,0.00,,,0.00,WeatherCatV1.11B39,2013-10-01 21:32:00,
2013-10-01 17:37:00,74.8,54.9,29.67,SSE,168,0.0,0.0,50,0.00,,,0.00,WeatherCatV1.11B39,2013-10-01 21:37:00,
2013-10-01 17:42:00,74.3,57.1,29.68,SSE,168,0.0,0.0,55,0.00,,,0.00,WeatherCatV1.11B39,2013-10-01 21:42:00,
2013-10-01 17:47:00,73.5,56.3,29.68,SSE,168,0.0,0.0,55,0.00,,,0.00,WeatherCatV1.11B39,2013-10-01 21:47:00,
2013-10-01 17:52:00,72.6,56.0,29.68,SSE,168,0.0,0.0,56,0.00,,,0.00,WeatherCatV1.11B39,2013-10-01 21:52:00,
2013-10-01 17:57:00,72.1,56.0,29.68,SSE,168,0.0,0.0,57,0.00,,,0.00,WeatherCatV1.11B39,2013-10-01 21:57:00,
2013-10-01 18:02:00,71.7,58.0,29.68,SSE,168,0.0,0.0,62,0.00,,,0.00,WeatherCatV1.11B39,2013-10-01 22:02:00,
2013-10-01 18:07:00,71.1,57.0,29.68,SSE,168,0.0,0.0,61,0.00,,,0.00,WeatherCatV1.11B39,2013-10-01 22:07:00,
2013-10-01 18:13:00,70.6,57.4,29.68,SSE,168,0.0,0.0,63,0.00,,,0.00,WeatherCatV1.11B39,2013-10-01 22:13:00,
2013-10-01 18:18:00,69.9,56.7,29.69,SSE,168,0.0,0.0,63,0.00,,,0.00,WeatherCatV1.11B39,2013-10-01 22:18:00,
2013-10-01 18:23:00,69.2,56.9,29.69,SSE,168,0.0,0.0,65,0.00,,,0.00,WeatherCatV1.11B39,2013-10-01 22:23:00,
2013-10-01 18:28:00,68.8,56.5,29.69,SSE,168,0.0,0.0,65,0.00,,,0.00,WeatherCatV1.11B39,2013-10-01 22:28:00,
2013-10-01 18:33:00,68.3,56.1,29.69,SSE,168,0.0,0.0,65,0.00,,,0.00,WeatherCatV1.11B39,2013-10-01 22:33:00,
2013-10-01 18:38:00,67.9,56.9,29.70,SSE,168,0.0,0.0,68,0.00,,,0.00,WeatherCatV1.11B39,2013-10-01 22:38:00,
2013-10-01 18:43:00,67.6,57.9,29.70,South,188,0.0,0.0,71,0.00,,,0.00,WeatherCatV1.11B39,2013-10-01 22:43:00,
2013-10-01 18:48:00,67.1,57.4,29.70,South,188,0.0,0.0,71,0.00,,,0.00,WeatherCatV1.11B39,2013-10-01 22:48:00,
2013-10-01 18:53:00,66.6,57.7,29.70,South,188,0.0,0.0,73,0.00,,,0.00,WeatherCatV1.11B39,2013-10-01 22:53:00,
2013-10-01 18:58:00,66.3,57.8,29.69,South,188,0.0,0.0,74,0.00,,,0.00,WeatherCatV1.11B39,2013-10-01 22:58:00,
2013-10-01 19:03:00,65.8,57.3,29.70,South,188,0.0,0.0,74,0.00,,,0.00,WeatherCatV1.11B39,2013-10-01 23:03:00,
2013-10-01 19:08:00,65.4,57.6,29.70,South,188,0.0,0.0,76,0.00,,,0.00,WeatherCatV1.11B39,2013-10-01 23:08:00,
2013-10-01 19:13:00,65.1,57.7,29.70,South,188,0.0,0.0,77,0.00,,,0.00,WeatherCatV1.11B39,2013-10-01 23:13:00,
2013-10-01 19:18:00,64.6,57.9,29.70,South,188,0.0,0.0,79,0.00,,,0.00,WeatherCatV1.11B39,2013-10-01 23:18:00,
2013-10-01 19:20:00,64.5,58.2,29.70,South,188,0.0,0.0,80,0.00,,,0.00,WeatherCatV1.11B39,2013-10-01 23:20:00,
2013-10-01 19:25:00,64.2,58.2,29.70,South,188,0.0,0.0,81,0.00,,,0.00,WeatherCatV1.11B39,2013-10-01 23:25:00,
2013-10-01 19:30:00,63.7,58.1,29.70,South,188,0.0,0.0,82,0.00,,,0.00,WeatherCatV1.11B39,2013-10-01 23:30:00,
2013-10-01 19:35:00,63.4,57.8,29.70,South,188,0.0,0.0,82,0.00,,,0.00,WeatherCatV1.11B39,2013-10-01 23:35:00,
2013-10-01 19:40:00,62.9,57.3,29.70,South,188,0.0,0.0,82,0.00,,,0.00,WeatherCatV1.11B39,2013-10-01 23:40:00,
2013-10-01 19:45:00,62.7,57.5,29.71,South,188,0.0,0.0,83,0.00,,,0.00,WeatherCatV1.11B39,2013-10-01 23:45:00,
2013-10-01 19:50:00,62.7,57.5,29.71,South,188,0.0,0.0,83,0.00,,,0.00,WeatherCatV1.11B39,2013-10-01 23:50:00,
2013-10-01 19:55:00,62.5,57.6,29.71,South,188,0.0,0.0,84,0.00,,,0.00,WeatherCatV1.11B39,2013-10-01 23:55:00,
2013-10-01 20:00:00,62.4,57.5,29.71,South,188,0.0,0.0,84,0.00,,,0.00,WeatherCatV1.11B39,2013-10-02 00:00:00,
2013-10-01 20:05:00,62.4,57.8,29.71,South,188,0.0,0.0,85,0.00,,,0.00,WeatherCatV1.11B39,2013-10-02 00:05:00,
2013-10-01 20:10:00,62.3,57.7,29.72,South,188,0.0,0.0,85,0.00,,,0.00,WeatherCatV1.11B39,2013-10-02 00:10:00,
2013-10-01 20:15:00,62.1,57.9,29.72,South,188,0.0,0.0,86,0.00,,,0.00,WeatherCatV1.11B39,2013-10-02 00:15:00,
2013-10-01 20:16:00,62.1,57.9,29.72,South,188,0.0,0.0,86,0.00,,,0.00,WeatherCatV1.11B39,2013-10-02 00:16:00,
2013-10-01 20:21:00,61.8,57.6,29.72,South,188,0.0,0.0,86,0.00,,,0.00,WeatherCatV1.11B39,2013-10-02 00:21:00,
2013-10-01 20:26:00,61.6,57.4,29.72,South,188,0.0,0.0,86,0.00,,,0.00,WeatherCatV1.11B39,2013-10-02 00:26:00,
2013-10-01 20:31:00,61.3,57.1,29.72,South,188,0.0,0.0,86,0.00,,,0.00,WeatherCatV1.11B39,2013-10-02 00:31:00,
2013-10-01 20:36:00,61.2,57.0,29.72,South,188,0.0,0.0,86,0.00,,,0.00,WeatherCatV1.11B39,2013-10-02 00:36:00,
2013-10-01 20:41:00,61.2,57.0,29.72,South,188,0.0,0.0,86,0.00,,,0.00,WeatherCatV1.11B39,2013-10-02 00:41:00,
2013-10-01 20:46:00,61.5,57.6,29.72,WSW,257,1.0,3.0,87,0.00,,,0.00,WeatherCatV1.11B39,2013-10-02 00:46:00,
2013-10-01 20:51:00,61.8,58.2,29.71,West,259,1.0,3.0,88,0.00,,,0.00,WeatherCatV1.11B39,2013-10-02 00:51:00,
2013-10-01 20:56:00,62.3,58.4,29.72,West,259,2.0,3.0,87,0.00,,,0.00,WeatherCatV1.11B39,2013-10-02 00:56:00,
2013-10-01 21:01:00,62.4,58.2,29.72,West,259,2.0,3.0,86,0.00,,,0.00,WeatherCatV1.11B39,2013-10-02 01:01:00,
2013-10-01 21:06:00,62.5,58.2,29.72,West,259,2.0,3.0,86,0.00,,,0.00,WeatherCatV1.11B39,2013-10-02 01:06:00,
2013-10-01 21:11:00,62.7,58.4,29.72,West,259,0.0,3.0,86,0.00,,,0.00,WeatherCatV1.11B39,2013-10-02 01:11:00,
2013-10-01 21:16:00,62.7,58.4,29.72,West,259,0.0,0.0,86,0.00,,,0.00,WeatherCatV1.11B39,2013-10-02 01:16:00,
2013-10-01 21:21:00,62.6,58.0,29.72,West,259,0.0,0.0,85,0.00,,,0.00,WeatherCatV1.11B39,2013-10-02 01:21:00,
2013-10-01 21:26:00,62.6,58.0,29.72,West,259,0.0,0.0,85,0.00,,,0.00,WeatherCatV1.11B39,2013-10-02 01:26:00,
2013-10-01 21:31:00,62.4,58.2,29.71,West,259,0.0,0.0,86,0.00,,,0.00,WeatherCatV1.11B39,2013-10-02 01:31:00,
2013-10-01 21:36:00,62.1,57.9,29.71,West,259,0.0,0.0,86,0.00,,,0.00,WeatherCatV1.11B39,2013-10-02 01:36:00,
2013-10-01 21:41:00,62.1,57.5,29.72,West,259,0.0,0.0,85,0.00,,,0.00,WeatherCatV1.11B39,2013-10-02 01:41:00,
2013-10-01 21:46:00,62.2,57.6,29.72,West,259,0.0,0.0,85,0.00,,,0.00,WeatherCatV1.11B39,2013-10-02 01:46:00,
2013-10-01 21:51:00,62.4,57.8,29.72,West,259,0.0,0.0,85,0.00,,,0.00,WeatherCatV1.11B39,2013-10-02 01:51:00,
2013-10-01 21:56:00,62.7,57.8,29.72,West,259,0.0,3.0,84,0.00,,,0.00,WeatherCatV1.11B39,2013-10-02 01:56:00,
2013-10-01 22:01:00,63.2,57.9,29.71,West,259,0.0,0.0,83,0.00,,,0.00,WeatherCatV1.11B39,2013-10-02 02:01:00,
2013-10-01 22:06:00,63.5,57.9,29.71,West,259,0.0,0.0,82,0.00,,,0.00,WeatherCatV1.11B39,2013-10-02 02:06:00,
2013-10-01 22:11:00,63.6,57.7,29.72,West,259,0.0,1.0,81,0.00,,,0.00,WeatherCatV1.11B39,2013-10-02 02:11:00,
2013-10-01 22:16:00,63.7,57.8,29.71,WNW,284,3.0,4.0,81,0.00,,,0.00,WeatherCatV1.11B39,2013-10-02 02:16:00,
2013-10-01 22:21:00,63.7,57.8,29.71,WNW,295,3.0,3.0,81,0.00,,,0.00,WeatherCatV1.11B39,2013-10-02 02:21:00,
2013-10-01 22:26:00,63.9,57.6,29.72,WNW,296,1.0,4.0,80,0.00,,,0.00,WeatherCatV1.11B39,2013-10-02 02:26:00,
2013-10-01 22:31:00,64.0,57.7,29.72,WNW,290,1.0,3.0,80,0.00,,,0.00,WeatherCatV1.11B39,2013-10-02 02:31:00,
2013-10-01 22:36:00,64.2,57.5,29.72,WNW,290,1.0,3.0,79,0.00,,,0.00,WeatherCatV1.11B39,2013-10-02 02:36:00,
2013-10-01 22:41:00,64.3,58.0,29.72,WNW,290,1.0,3.0,80,0.00,,,0.00,WeatherCatV1.11B39,2013-10-02 02:41:00,
2013-10-01 22:46:00,64.2,57.5,29.71,WNW,290,0.0,0.0,79,0.00,,,0.00,WeatherCatV1.11B39,2013-10-02 02:46:00,
2013-10-01 22:51:00,64.0,57.3,29.72,WNW,290,0.0,0.0,79,0.00,,,0.00,WeatherCatV1.11B39,2013-10-02 02:51:00,
2013-10-01 22:56:00,63.8,57.5,29.71,WNW,290,2.0,4.0,80,0.00,,,0.00,WeatherCatV1.11B39,2013-10-02 02:56:00,
2013-10-01 23:01:00,63.8,57.5,29.71,WNW,298,2.0,4.0,80,0.00,,,0.00,WeatherCatV1.11B39,2013-10-02 03:01:00,
2013-10-01 23:06:00,64.0,57.7,29.72,NW,315,2.0,5.0,80,0.00,,,0.00,WeatherCatV1.11B39,2013-10-02 03:06:00,
2013-10-01 23:11:00,64.3,57.6,29.72,NW,318,2.0,5.0,79,0.00,,,0.00,WeatherCatV1.11B39,2013-10-02 03:11:00,
2013-10-01 23:16:00,64.5,57.8,29.71,NW,304,5.0,5.0,79,0.00,,,0.00,WeatherCatV1.11B39,2013-10-02 03:16:00,
2013-10-01 23:21:00,64.5,57.5,29.71,NNW,344,4.0,6.0,78,0.00,,,0.00,WeatherCatV1.11B39,2013-10-02 03:21:00,
2013-10-01 23:26:00,64.5,57.5,29.71,NNW,331,3.0,6.0,78,0.00,,,0.00,WeatherCatV1.11B39,2013-10-02 03:26:00,
2013-10-01 23:32:00,64.5,57.5,29.71,WNW,295,2.0,6.0,78,0.00,,,0.00,WeatherCatV1.11B39,2013-10-02 03:32:00,
2013-10-01 23:37:00,64.3,56.9,29.71,NW,304,3.0,5.0,77,0.00,,,0.00,WeatherCatV1.11B39,2013-10-02 03:37:00,
2013-10-01 23:41:00,64.3,56.9,29.70,WNW,296,3.0,7.0,77,0.00,,,0.00,WeatherCatV1.11B39,2013-10-02 03:41:00,
2013-10-01 23:46:00,64.5,57.1,29.70,WNW,294,3.0,5.0,77,0.00,,,0.00,WeatherCatV1.11B39,2013-10-02 03:46:00,
2013-10-01 23:51:00,64.3,56.9,29.70,WNW,297,3.0,3.0,77,0.00,,,0.00,WeatherCatV1.11B39,2013-10-02 03:51:00,
2013-10-01 23:56:00,64.2,56.5,29.70,WNW,302,1.0,4.0,76,0.00,,,0.00,WeatherCatV1.11B39,2013-10-02 03:56:00,